sensor_id;sensor_type;location;lat;lon;timestamp;temperature;humidity
28336;DHT22;15592;53.656;7.276;2022-07-23T00:01:27;15.80;99.90
28336;DHT22;15592;53.656;7.276;2022-07-23T00:03:54;15.80;99.90
28336;DHT22;15592;53.656;7.276;2022-07-23T00:06:21;15.80;99.90
28336;DHT22;15592;53.656;7.276;2022-07-23T00:08:47;15.80;99.90
28336;DHT22;15592;53.656;7.276;2022-07-23T00:11:13;15.90;99.90
28336;DHT22;15592;53.656;7.276;2022-07-23T00:13:39;15.90;99.90
28336;DHT22;15592;53.656;7.276;2022-07-23T00:16:05;15.90;99.90
28336;DHT22;15592;53.656;7.276;2022-07-23T00:18:30;15.90;99.90
28336;DHT22;15592;53.656;7.276;2022-07-23T00:20:56;15.90;99.90
28336;DHT22;15592;53.656;7.276;2022-07-23T00:23:22;15.90;99.90
28336;DHT22;15592;53.656;7.276;2022-07-23T00:25:47;15.90;99.90
28336;DHT22;15592;53.656;7.276;2022-07-23T00:28:13;15.90;99.90
28336;DHT22;15592;53.656;7.276;2022-07-23T00:30:39;15.80;99.90
28336;DHT22;15592;53.656;7.276;2022-07-23T00:33:07;15.80;99.90
28336;DHT22;15592;53.656;7.276;2022-07-23T00:35:34;15.80;99.90
28336;DHT22;15592;53.656;7.276;2022-07-23T00:38:01;15.80;99.90
28336;DHT22;15592;53.656;7.276;2022-07-23T00:40:29;15.80;99.90
28336;DHT22;15592;53.656;7.276;2022-07-23T00:42:55;15.80;99.90
28336;DHT22;15592;53.656;7.276;2022-07-23T00:45:21;15.80;99.90
28336;DHT22;15592;53.656;7.276;2022-07-23T00:47:47;15.80;99.90
28336;DHT22;15592;53.656;7.276;2022-07-23T00:50:13;15.80;99.90
28336;DHT22;15592;53.656;7.276;2022-07-23T00:52:39;15.80;99.90
28336;DHT22;15592;53.656;7.276;2022-07-23T00:55:07;15.80;99.90
28336;DHT22;15592;53.656;7.276;2022-07-23T00:57:33;15.70;99.90
28336;DHT22;15592;53.656;7.276;2022-07-23T00:59:59;15.70;99.90
28336;DHT22;15592;53.656;7.276;2022-07-23T01:02:25;15.70;99.90
28336;DHT22;15592;53.656;7.276;2022-07-23T01:04:51;15.70;99.90
28336;DHT22;15592;53.656;7.276;2022-07-23T01:07:17;15.60;99.90
28336;DHT22;15592;53.656;7.276;2022-07-23T01:09:44;15.60;99.90
28336;DHT22;15592;53.656;7.276;2022-07-23T01:12:10;15.50;99.90
28336;DHT22;15592;53.656;7.276;2022-07-23T01:14:36;15.50;99.90
28336;DHT22;15592;53.656;7.276;2022-07-23T01:17:02;15.50;99.90
28336;DHT22;15592;53.656;7.276;2022-07-23T01:19:27;15.50;99.90
28336;DHT22;15592;53.656;7.276;2022-07-23T01:21:53;15.40;99.90
28336;DHT22;15592;53.656;7.276;2022-07-23T01:24:20;15.40;99.90
28336;DHT22;15592;53.656;7.276;2022-07-23T01:26:47;15.40;99.90
28336;DHT22;15592;53.656;7.276;2022-07-23T01:29:14;15.40;99.90
28336;DHT22;15592;53.656;7.276;2022-07-23T01:31:40;15.30;99.90
28336;DHT22;15592;53.656;7.276;2022-07-23T01:34:06;15.30;99.90
28336;DHT22;15592;53.656;7.276;2022-07-23T01:36:33;15.30;99.90
28336;DHT22;15592;53.656;7.276;2022-07-23T01:38:59;15.30;99.90
28336;DHT22;15592;53.656;7.276;2022-07-23T01:41:25;15.20;99.90
28336;DHT22;15592;53.656;7.276;2022-07-23T01:43:50;15.20;99.90
28336;DHT22;15592;53.656;7.276;2022-07-23T01:46:16;15.20;99.90
28336;DHT22;15592;53.656;7.276;2022-07-23T01:48:42;15.20;99.90
28336;DHT22;15592;53.656;7.276;2022-07-23T01:51:07;15.20;99.90
28336;DHT22;15592;53.656;7.276;2022-07-23T01:53:33;15.10;99.90
28336;DHT22;15592;53.656;7.276;2022-07-23T01:55:59;15.10;99.90
28336;DHT22;15592;53.656;7.276;2022-07-23T01:58:26;15.10;99.90
28336;DHT22;15592;53.656;7.276;2022-07-23T02:00:52;15.10;99.90
28336;DHT22;15592;53.656;7.276;2022-07-23T02:03:18;15.10;99.90
28336;DHT22;15592;53.656;7.276;2022-07-23T02:05:43;15.00;99.90
28336;DHT22;15592;53.656;7.276;2022-07-23T02:08:09;15.00;99.90
28336;DHT22;15592;53.656;7.276;2022-07-23T02:10:35;15.00;99.90
28336;DHT22;15592;53.656;7.276;2022-07-23T02:13:00;15.00;99.90
28336;DHT22;15592;53.656;7.276;2022-07-23T02:15:26;15.00;99.90
28336;DHT22;15592;53.656;7.276;2022-07-23T02:17:52;15.00;99.90
28336;DHT22;15592;53.656;7.276;2022-07-23T02:20:17;14.90;99.90
28336;DHT22;15592;53.656;7.276;2022-07-23T02:22:43;14.80;99.90
28336;DHT22;15592;53.656;7.276;2022-07-23T02:25:09;14.80;99.90
28336;DHT22;15592;53.656;7.276;2022-07-23T02:27:35;14.80;99.90
28336;DHT22;15592;53.656;7.276;2022-07-23T02:30:01;14.80;99.90
28336;DHT22;15592;53.656;7.276;2022-07-23T02:32:27;14.80;99.90
28336;DHT22;15592;53.656;7.276;2022-07-23T02:34:53;14.80;99.90
28336;DHT22;15592;53.656;7.276;2022-07-23T02:37:18;14.80;99.90
28336;DHT22;15592;53.656;7.276;2022-07-23T02:39:44;14.80;99.90
28336;DHT22;15592;53.656;7.276;2022-07-23T02:42:10;14.70;99.90
28336;DHT22;15592;53.656;7.276;2022-07-23T02:44:35;14.70;99.90
28336;DHT22;15592;53.656;7.276;2022-07-23T02:47:01;14.70;99.90
28336;DHT22;15592;53.656;7.276;2022-07-23T02:49:27;14.70;99.90
28336;DHT22;15592;53.656;7.276;2022-07-23T02:51:53;14.70;99.90
28336;DHT22;15592;53.656;7.276;2022-07-23T02:54:19;14.70;99.90
28336;DHT22;15592;53.656;7.276;2022-07-23T02:56:44;14.60;99.90
28336;DHT22;15592;53.656;7.276;2022-07-23T02:59:10;14.60;99.90
28336;DHT22;15592;53.656;7.276;2022-07-23T03:01:36;14.60;99.90
28336;DHT22;15592;53.656;7.276;2022-07-23T03:04:01;14.60;99.90
28336;DHT22;15592;53.656;7.276;2022-07-23T03:06:27;14.50;99.90
28336;DHT22;15592;53.656;7.276;2022-07-23T03:08:53;14.50;99.90
28336;DHT22;15592;53.656;7.276;2022-07-23T03:11:18;14.50;99.90
28336;DHT22;15592;53.656;7.276;2022-07-23T03:13:44;14.50;99.90
28336;DHT22;15592;53.656;7.276;2022-07-23T03:16:10;14.50;99.90
28336;DHT22;15592;53.656;7.276;2022-07-23T03:18:35;14.50;99.90
28336;DHT22;15592;53.656;7.276;2022-07-23T03:21:02;14.50;99.90
28336;DHT22;15592;53.656;7.276;2022-07-23T03:23:27;14.50;99.90
28336;DHT22;15592;53.656;7.276;2022-07-23T03:25:53;14.50;99.90
28336;DHT22;15592;53.656;7.276;2022-07-23T03:28:19;14.50;99.90
28336;DHT22;15592;53.656;7.276;2022-07-23T03:30:45;14.50;99.90
28336;DHT22;15592;53.656;7.276;2022-07-23T03:33:15;14.50;99.90
28336;DHT22;15592;53.656;7.276;2022-07-23T03:35:42;14.50;99.90
28336;DHT22;15592;53.656;7.276;2022-07-23T03:38:08;14.60;99.90
28336;DHT22;15592;53.656;7.276;2022-07-23T03:40:34;14.60;99.90
28336;DHT22;15592;53.656;7.276;2022-07-23T03:43:00;14.60;99.90
28336;DHT22;15592;53.656;7.276;2022-07-23T03:45:25;14.60;99.90
28336;DHT22;15592;53.656;7.276;2022-07-23T03:47:51;14.60;99.90
28336;DHT22;15592;53.656;7.276;2022-07-23T03:50:17;14.70;99.90
28336;DHT22;15592;53.656;7.276;2022-07-23T03:52:42;14.70;99.90
28336;DHT22;15592;53.656;7.276;2022-07-23T03:55:08;14.70;99.90
28336;DHT22;15592;53.656;7.276;2022-07-23T03:57:34;14.70;99.90
28336;DHT22;15592;53.656;7.276;2022-07-23T03:59:59;14.70;99.90
28336;DHT22;15592;53.656;7.276;2022-07-23T04:02:25;14.70;99.90
28336;DHT22;15592;53.656;7.276;2022-07-23T04:04:51;14.60;99.90
28336;DHT22;15592;53.656;7.276;2022-07-23T04:07:17;14.60;99.90
28336;DHT22;15592;53.656;7.276;2022-07-23T04:09:43;14.60;99.90
28336;DHT22;15592;53.656;7.276;2022-07-23T04:12:09;14.60;99.90
28336;DHT22;15592;53.656;7.276;2022-07-23T04:14:35;14.60;99.90
28336;DHT22;15592;53.656;7.276;2022-07-23T04:17:00;14.50;99.90
28336;DHT22;15592;53.656;7.276;2022-07-23T04:19:26;14.50;99.90
28336;DHT22;15592;53.656;7.276;2022-07-23T04:21:52;14.50;99.90
28336;DHT22;15592;53.656;7.276;2022-07-23T04:24:18;14.50;99.90
28336;DHT22;15592;53.656;7.276;2022-07-23T04:26:44;14.40;99.90
28336;DHT22;15592;53.656;7.276;2022-07-23T04:29:10;14.40;99.90
28336;DHT22;15592;53.656;7.276;2022-07-23T04:31:36;14.40;99.90
28336;DHT22;15592;53.656;7.276;2022-07-23T04:34:02;14.50;99.90
28336;DHT22;15592;53.656;7.276;2022-07-23T04:36:27;14.40;99.90
28336;DHT22;15592;53.656;7.276;2022-07-23T04:38:54;14.40;99.90
28336;DHT22;15592;53.656;7.276;2022-07-23T04:41:19;14.50;99.90
28336;DHT22;15592;53.656;7.276;2022-07-23T04:43:45;14.50;99.90
28336;DHT22;15592;53.656;7.276;2022-07-23T04:46:11;14.70;99.90
28336;DHT22;15592;53.656;7.276;2022-07-23T04:48:37;14.80;99.90
28336;DHT22;15592;53.656;7.276;2022-07-23T04:51:02;14.80;99.90
28336;DHT22;15592;53.656;7.276;2022-07-23T04:53:28;14.80;99.90
28336;DHT22;15592;53.656;7.276;2022-07-23T04:55:54;14.90;99.90
28336;DHT22;15592;53.656;7.276;2022-07-23T04:58:20;14.90;99.90
28336;DHT22;15592;53.656;7.276;2022-07-23T05:00:46;14.90;99.90
28336;DHT22;15592;53.656;7.276;2022-07-23T05:03:11;14.90;99.90
28336;DHT22;15592;53.656;7.276;2022-07-23T05:05:37;14.90;99.90
28336;DHT22;15592;53.656;7.276;2022-07-23T05:08:04;14.90;99.90
28336;DHT22;15592;53.656;7.276;2022-07-23T05:10:30;14.90;99.90
28336;DHT22;15592;53.656;7.276;2022-07-23T05:12:56;14.90;99.90
28336;DHT22;15592;53.656;7.276;2022-07-23T05:15:22;15.00;99.90
28336;DHT22;15592;53.656;7.276;2022-07-23T05:17:47;15.00;99.90
28336;DHT22;15592;53.656;7.276;2022-07-23T05:20:13;15.10;99.90
28336;DHT22;15592;53.656;7.276;2022-07-23T05:22:39;15.10;99.90
28336;DHT22;15592;53.656;7.276;2022-07-23T05:25:05;15.10;99.90
28336;DHT22;15592;53.656;7.276;2022-07-23T05:27:31;15.20;99.90
28336;DHT22;15592;53.656;7.276;2022-07-23T05:29:56;15.20;99.90
28336;DHT22;15592;53.656;7.276;2022-07-23T05:32:22;15.20;99.90
28336;DHT22;15592;53.656;7.276;2022-07-23T05:34:48;15.20;99.90
28336;DHT22;15592;53.656;7.276;2022-07-23T05:37:14;15.20;99.90
28336;DHT22;15592;53.656;7.276;2022-07-23T05:39:39;15.20;99.90
28336;DHT22;15592;53.656;7.276;2022-07-23T05:42:05;15.20;99.90
28336;DHT22;15592;53.656;7.276;2022-07-23T05:44:31;15.20;99.90
28336;DHT22;15592;53.656;7.276;2022-07-23T05:46:56;15.20;99.90
28336;DHT22;15592;53.656;7.276;2022-07-23T05:49:22;15.20;99.90
28336;DHT22;15592;53.656;7.276;2022-07-23T05:51:48;15.20;99.90
28336;DHT22;15592;53.656;7.276;2022-07-23T05:54:13;15.30;99.90
28336;DHT22;15592;53.656;7.276;2022-07-23T05:56:39;15.30;99.90
28336;DHT22;15592;53.656;7.276;2022-07-23T05:59:04;15.30;99.90
28336;DHT22;15592;53.656;7.276;2022-07-23T06:01:31;15.30;99.90
28336;DHT22;15592;53.656;7.276;2022-07-23T06:03:56;15.30;99.90
28336;DHT22;15592;53.656;7.276;2022-07-23T06:06:22;15.30;99.90
28336;DHT22;15592;53.656;7.276;2022-07-23T06:08:48;15.30;99.90
28336;DHT22;15592;53.656;7.276;2022-07-23T06:11:13;15.40;99.90
28336;DHT22;15592;53.656;7.276;2022-07-23T06:13:39;15.40;99.90
28336;DHT22;15592;53.656;7.276;2022-07-23T06:16:04;15.40;99.90
28336;DHT22;15592;53.656;7.276;2022-07-23T06:18:30;15.40;99.90
28336;DHT22;15592;53.656;7.276;2022-07-23T06:20:56;15.40;99.90
28336;DHT22;15592;53.656;7.276;2022-07-23T06:23:22;15.40;99.90
28336;DHT22;15592;53.656;7.276;2022-07-23T06:25:47;15.40;99.90
28336;DHT22;15592;53.656;7.276;2022-07-23T06:28:13;15.40;99.90
28336;DHT22;15592;53.656;7.276;2022-07-23T06:30:38;15.40;99.90
28336;DHT22;15592;53.656;7.276;2022-07-23T06:33:04;15.40;99.90
28336;DHT22;15592;53.656;7.276;2022-07-23T06:35:30;15.30;99.90
28336;DHT22;15592;53.656;7.276;2022-07-23T06:37:55;15.30;99.90
28336;DHT22;15592;53.656;7.276;2022-07-23T06:40:21;15.30;99.90
28336;DHT22;15592;53.656;7.276;2022-07-23T06:42:47;15.30;99.90
28336;DHT22;15592;53.656;7.276;2022-07-23T06:45:12;15.30;99.90
28336;DHT22;15592;53.656;7.276;2022-07-23T06:47:38;15.40;99.90
28336;DHT22;15592;53.656;7.276;2022-07-23T06:50:05;15.40;99.90
28336;DHT22;15592;53.656;7.276;2022-07-23T06:52:31;15.40;99.90
28336;DHT22;15592;53.656;7.276;2022-07-23T06:54:56;15.50;99.90
28336;DHT22;15592;53.656;7.276;2022-07-23T06:57:22;15.50;99.90
28336;DHT22;15592;53.656;7.276;2022-07-23T06:59:48;15.60;99.90
28336;DHT22;15592;53.656;7.276;2022-07-23T07:02:14;15.60;99.90
28336;DHT22;15592;53.656;7.276;2022-07-23T07:04:39;15.50;99.90
28336;DHT22;15592;53.656;7.276;2022-07-23T07:07:05;15.50;99.90
28336;DHT22;15592;53.656;7.276;2022-07-23T07:09:30;15.40;99.90
28336;DHT22;15592;53.656;7.276;2022-07-23T07:11:56;15.40;99.90
28336;DHT22;15592;53.656;7.276;2022-07-23T07:14:22;15.20;99.90
28336;DHT22;15592;53.656;7.276;2022-07-23T07:16:47;15.20;99.90
28336;DHT22;15592;53.656;7.276;2022-07-23T07:19:13;15.20;99.90
28336;DHT22;15592;53.656;7.276;2022-07-23T07:21:38;15.20;99.90
28336;DHT22;15592;53.656;7.276;2022-07-23T07:24:04;15.20;99.90
28336;DHT22;15592;53.656;7.276;2022-07-23T07:26:30;15.20;99.90
28336;DHT22;15592;53.656;7.276;2022-07-23T07:28:56;15.30;99.90
28336;DHT22;15592;53.656;7.276;2022-07-23T07:31:22;15.30;99.90
28336;DHT22;15592;53.656;7.276;2022-07-23T07:33:48;15.40;99.90
28336;DHT22;15592;53.656;7.276;2022-07-23T07:36:13;15.50;99.90
28336;DHT22;15592;53.656;7.276;2022-07-23T07:38:39;15.50;99.90
28336;DHT22;15592;53.656;7.276;2022-07-23T07:41:05;15.60;99.90
28336;DHT22;15592;53.656;7.276;2022-07-23T07:43:30;15.60;99.90
28336;DHT22;15592;53.656;7.276;2022-07-23T07:45:56;15.60;99.90
28336;DHT22;15592;53.656;7.276;2022-07-23T07:48:21;15.60;99.90
28336;DHT22;15592;53.656;7.276;2022-07-23T07:50:47;15.70;99.90
28336;DHT22;15592;53.656;7.276;2022-07-23T07:53:13;15.70;99.90
28336;DHT22;15592;53.656;7.276;2022-07-23T07:55:38;15.80;99.90
28336;DHT22;15592;53.656;7.276;2022-07-23T07:58:04;15.80;99.90
28336;DHT22;15592;53.656;7.276;2022-07-23T08:00:30;15.80;99.90
28336;DHT22;15592;53.656;7.276;2022-07-23T08:02:56;15.80;99.90
28336;DHT22;15592;53.656;7.276;2022-07-23T08:05:23;15.80;99.90
28336;DHT22;15592;53.656;7.276;2022-07-23T08:07:49;15.80;99.90
28336;DHT22;15592;53.656;7.276;2022-07-23T08:10:15;15.80;99.90
28336;DHT22;15592;53.656;7.276;2022-07-23T08:12:42;15.70;99.90
28336;DHT22;15592;53.656;7.276;2022-07-23T08:15:10;15.70;99.90
28336;DHT22;15592;53.656;7.276;2022-07-23T08:17:36;15.70;99.90
28336;DHT22;15592;53.656;7.276;2022-07-23T08:20:03;15.60;99.90
28336;DHT22;15592;53.656;7.276;2022-07-23T08:22:52;15.60;99.90
28336;DHT22;15592;53.656;7.276;2022-07-23T08:27:51;15.60;99.90
28336;DHT22;15592;53.656;7.276;2022-07-23T08:30:17;15.70;99.90
28336;DHT22;15592;53.656;7.276;2022-07-23T08:35:44;15.80;99.90
28336;DHT22;15592;53.656;7.276;2022-07-23T08:38:13;15.80;99.90
28336;DHT22;15592;53.656;7.276;2022-07-23T08:40:41;15.90;99.90
28336;DHT22;15592;53.656;7.276;2022-07-23T08:43:10;16.00;99.90
28336;DHT22;15592;53.656;7.276;2022-07-23T08:45:38;16.10;99.90
28336;DHT22;15592;53.656;7.276;2022-07-23T08:48:11;16.20;99.90
28336;DHT22;15592;53.656;7.276;2022-07-23T08:50:37;16.30;99.90
28336;DHT22;15592;53.656;7.276;2022-07-23T08:53:06;16.40;99.90
28336;DHT22;15592;53.656;7.276;2022-07-23T08:55:33;16.50;99.90
28336;DHT22;15592;53.656;7.276;2022-07-23T08:57:58;16.60;99.90
28336;DHT22;15592;53.656;7.276;2022-07-23T09:00:24;16.60;99.90
28336;DHT22;15592;53.656;7.276;2022-07-23T09:02:50;16.70;99.90
28336;DHT22;15592;53.656;7.276;2022-07-23T09:05:16;16.70;99.90
28336;DHT22;15592;53.656;7.276;2022-07-23T09:08:05;16.70;99.90
28336;DHT22;15592;53.656;7.276;2022-07-23T09:15:56;16.80;99.90
28336;DHT22;15592;53.656;7.276;2022-07-23T09:18:30;16.80;99.90
28336;DHT22;15592;53.656;7.276;2022-07-23T09:21:13;16.80;99.90
28336;DHT22;15592;53.656;7.276;2022-07-23T09:26:28;16.90;99.90
28336;DHT22;15592;53.656;7.276;2022-07-23T09:29:19;17.00;99.90
28336;DHT22;15592;53.656;7.276;2022-07-23T09:31:52;17.00;99.90
28336;DHT22;15592;53.656;7.276;2022-07-23T09:36:45;17.00;99.90
28336;DHT22;15592;53.656;7.276;2022-07-23T09:39:12;17.00;99.90
28336;DHT22;15592;53.656;7.276;2022-07-23T09:41:43;17.00;99.90
28336;DHT22;15592;53.656;7.276;2022-07-23T09:44:15;17.00;99.90
28336;DHT22;15592;53.656;7.276;2022-07-23T09:46:42;17.00;99.90
28336;DHT22;15592;53.656;7.276;2022-07-23T09:49:14;17.00;99.90
28336;DHT22;15592;53.656;7.276;2022-07-23T09:51:45;17.10;99.90
28336;DHT22;15592;53.656;7.276;2022-07-23T09:54:40;17.10;99.90
28336;DHT22;15592;53.656;7.276;2022-07-23T09:57:11;17.20;99.90
28336;DHT22;15592;53.656;7.276;2022-07-23T09:59:44;17.30;99.90
28336;DHT22;15592;53.656;7.276;2022-07-23T10:02:12;17.40;99.90
28336;DHT22;15592;53.656;7.276;2022-07-23T10:04:39;17.60;99.90
28336;DHT22;15592;53.656;7.276;2022-07-23T10:07:06;17.70;99.90
28336;DHT22;15592;53.656;7.276;2022-07-23T10:09:35;17.80;99.90
28336;DHT22;15592;53.656;7.276;2022-07-23T10:12:13;17.80;99.90
28336;DHT22;15592;53.656;7.276;2022-07-23T10:15:02;17.90;99.90
28336;DHT22;15592;53.656;7.276;2022-07-23T10:17:29;17.90;99.90
28336;DHT22;15592;53.656;7.276;2022-07-23T10:19:55;17.90;99.90
28336;DHT22;15592;53.656;7.276;2022-07-23T10:22:23;18.00;99.90
28336;DHT22;15592;53.656;7.276;2022-07-23T10:25:00;18.10;99.90
28336;DHT22;15592;53.656;7.276;2022-07-23T10:30:06;18.30;99.90
28336;DHT22;15592;53.656;7.276;2022-07-23T10:41:01;18.60;99.90
28336;DHT22;15592;53.656;7.276;2022-07-23T10:43:28;18.60;99.90
28336;DHT22;15592;53.656;7.276;2022-07-23T10:45:54;18.60;99.90
28336;DHT22;15592;53.656;7.276;2022-07-23T10:48:23;18.50;99.90
28336;DHT22;15592;53.656;7.276;2022-07-23T10:56:50;18.30;99.90
28336;DHT22;15592;53.656;7.276;2022-07-23T10:59:16;18.30;99.90
28336;DHT22;15592;53.656;7.276;2022-07-23T11:01:41;18.20;99.90
28336;DHT22;15592;53.656;7.276;2022-07-23T11:04:07;18.10;99.90
28336;DHT22;15592;53.656;7.276;2022-07-23T11:09:25;18.30;99.90
28336;DHT22;15592;53.656;7.276;2022-07-23T11:15:10;18.40;99.90
28336;DHT22;15592;53.656;7.276;2022-07-23T11:20:22;18.50;99.90
28336;DHT22;15592;53.656;7.276;2022-07-23T11:22:51;18.60;99.90
28336;DHT22;15592;53.656;7.276;2022-07-23T11:27:50;18.70;99.90
28336;DHT22;15592;53.656;7.276;2022-07-23T11:35:39;18.90;99.90
28336;DHT22;15592;53.656;7.276;2022-07-23T11:38:21;18.90;99.90
28336;DHT22;15592;53.656;7.276;2022-07-23T11:40:52;19.00;99.90
28336;DHT22;15592;53.656;7.276;2022-07-23T11:43:20;19.00;99.90
28336;DHT22;15592;53.656;7.276;2022-07-23T11:46:09;19.00;99.90
28336;DHT22;15592;53.656;7.276;2022-07-23T11:48:34;18.90;99.90
28336;DHT22;15592;53.656;7.276;2022-07-23T11:51:00;18.90;99.90
28336;DHT22;15592;53.656;7.276;2022-07-23T11:53:31;18.90;99.90
28336;DHT22;15592;53.656;7.276;2022-07-23T11:56:05;18.90;99.90
28336;DHT22;15592;53.656;7.276;2022-07-23T11:58:31;19.00;99.90
28336;DHT22;15592;53.656;7.276;2022-07-23T12:00:57;19.10;99.90
28336;DHT22;15592;53.656;7.276;2022-07-23T12:03:23;19.00;99.90
28336;DHT22;15592;53.656;7.276;2022-07-23T12:05:48;19.00;99.90
28336;DHT22;15592;53.656;7.276;2022-07-23T12:08:14;19.00;99.90
28336;DHT22;15592;53.656;7.276;2022-07-23T12:10:44;19.00;99.90
28336;DHT22;15592;53.656;7.276;2022-07-23T12:13:17;19.10;99.90
28336;DHT22;15592;53.656;7.276;2022-07-23T12:15:53;19.10;99.90
28336;DHT22;15592;53.656;7.276;2022-07-23T12:18:22;19.20;99.90
28336;DHT22;15592;53.656;7.276;2022-07-23T12:21:02;19.10;99.90
28336;DHT22;15592;53.656;7.276;2022-07-23T12:23:28;19.10;99.90
28336;DHT22;15592;53.656;7.276;2022-07-23T12:25:54;19.10;99.90
28336;DHT22;15592;53.656;7.276;2022-07-23T12:28:21;19.20;99.90
28336;DHT22;15592;53.656;7.276;2022-07-23T12:30:49;19.30;99.90
28336;DHT22;15592;53.656;7.276;2022-07-23T12:33:22;19.30;99.90
28336;DHT22;15592;53.656;7.276;2022-07-23T12:35:49;19.20;99.90
28336;DHT22;15592;53.656;7.276;2022-07-23T12:38:17;19.20;99.90
28336;DHT22;15592;53.656;7.276;2022-07-23T12:43:32;19.20;99.90
28336;DHT22;15592;53.656;7.276;2022-07-23T12:46:04;19.20;99.90
28336;DHT22;15592;53.656;7.276;2022-07-23T12:48:31;19.20;99.90
28336;DHT22;15592;53.656;7.276;2022-07-23T12:51:08;19.00;99.90
28336;DHT22;15592;53.656;7.276;2022-07-23T12:53:45;19.10;99.90
28336;DHT22;15592;53.656;7.276;2022-07-23T12:56:13;19.00;99.90
28336;DHT22;15592;53.656;7.276;2022-07-23T12:58:51;19.10;99.90
28336;DHT22;15592;53.656;7.276;2022-07-23T13:03:58;19.10;99.90
28336;DHT22;15592;53.656;7.276;2022-07-23T13:06:25;19.20;99.90
28336;DHT22;15592;53.656;7.276;2022-07-23T13:08:51;19.30;99.90
28336;DHT22;15592;53.656;7.276;2022-07-23T13:11:17;19.40;99.90
28336;DHT22;15592;53.656;7.276;2022-07-23T13:13:42;19.40;99.90
28336;DHT22;15592;53.656;7.276;2022-07-23T13:16:08;19.40;99.90
28336;DHT22;15592;53.656;7.276;2022-07-23T13:18:34;19.40;99.90
28336;DHT22;15592;53.656;7.276;2022-07-23T13:21:00;19.40;99.90
28336;DHT22;15592;53.656;7.276;2022-07-23T13:23:26;19.40;99.90
28336;DHT22;15592;53.656;7.276;2022-07-23T13:25:52;19.30;99.90
28336;DHT22;15592;53.656;7.276;2022-07-23T13:28:19;19.30;99.90
28336;DHT22;15592;53.656;7.276;2022-07-23T13:30:46;19.20;99.90
28336;DHT22;15592;53.656;7.276;2022-07-23T13:33:15;19.20;99.90
28336;DHT22;15592;53.656;7.276;2022-07-23T13:35:41;19.10;99.90
28336;DHT22;15592;53.656;7.276;2022-07-23T13:38:06;19.10;99.90
28336;DHT22;15592;53.656;7.276;2022-07-23T13:40:34;19.00;99.90
28336;DHT22;15592;53.656;7.276;2022-07-23T13:43:00;19.00;99.90
28336;DHT22;15592;53.656;7.276;2022-07-23T13:45:26;19.00;99.90
28336;DHT22;15592;53.656;7.276;2022-07-23T13:47:52;19.00;99.90
28336;DHT22;15592;53.656;7.276;2022-07-23T13:50:17;19.00;99.90
28336;DHT22;15592;53.656;7.276;2022-07-23T13:52:43;19.10;99.90
28336;DHT22;15592;53.656;7.276;2022-07-23T13:55:09;19.10;99.90
28336;DHT22;15592;53.656;7.276;2022-07-23T13:57:35;19.20;99.90
28336;DHT22;15592;53.656;7.276;2022-07-23T14:00:02;19.20;99.90
28336;DHT22;15592;53.656;7.276;2022-07-23T14:02:29;19.20;99.90
28336;DHT22;15592;53.656;7.276;2022-07-23T14:04:54;19.10;99.90
28336;DHT22;15592;53.656;7.276;2022-07-23T14:07:20;19.20;99.90
28336;DHT22;15592;53.656;7.276;2022-07-23T14:09:46;19.20;99.90
28336;DHT22;15592;53.656;7.276;2022-07-23T14:12:12;19.20;99.90
28336;DHT22;15592;53.656;7.276;2022-07-23T14:14:37;19.20;99.90
28336;DHT22;15592;53.656;7.276;2022-07-23T14:17:05;19.20;99.90
28336;DHT22;15592;53.656;7.276;2022-07-23T14:19:31;19.20;99.90
28336;DHT22;15592;53.656;7.276;2022-07-23T14:21:56;19.20;99.90
28336;DHT22;15592;53.656;7.276;2022-07-23T14:24:22;19.20;99.90
28336;DHT22;15592;53.656;7.276;2022-07-23T14:26:48;19.20;99.90
28336;DHT22;15592;53.656;7.276;2022-07-23T14:29:13;19.20;99.90
28336;DHT22;15592;53.656;7.276;2022-07-23T14:31:39;19.10;99.90
28336;DHT22;15592;53.656;7.276;2022-07-23T14:34:05;19.10;99.90
28336;DHT22;15592;53.656;7.276;2022-07-23T14:36:30;19.10;99.90
28336;DHT22;15592;53.656;7.276;2022-07-23T14:38:56;19.10;99.90
28336;DHT22;15592;53.656;7.276;2022-07-23T14:41:21;19.20;99.90
28336;DHT22;15592;53.656;7.276;2022-07-23T14:43:47;19.10;99.90
28336;DHT22;15592;53.656;7.276;2022-07-23T14:46:14;19.10;99.90
28336;DHT22;15592;53.656;7.276;2022-07-23T14:48:39;19.10;99.90
28336;DHT22;15592;53.656;7.276;2022-07-23T14:51:05;19.20;99.90
28336;DHT22;15592;53.656;7.276;2022-07-23T14:53:31;19.20;99.90
28336;DHT22;15592;53.656;7.276;2022-07-23T14:55:57;19.10;99.90
28336;DHT22;15592;53.656;7.276;2022-07-23T14:58:23;19.10;99.90
28336;DHT22;15592;53.656;7.276;2022-07-23T15:00:50;19.20;99.90
28336;DHT22;15592;53.656;7.276;2022-07-23T15:03:16;19.20;99.90
28336;DHT22;15592;53.656;7.276;2022-07-23T15:05:41;19.20;99.90
28336;DHT22;15592;53.656;7.276;2022-07-23T15:08:07;19.20;99.90
28336;DHT22;15592;53.656;7.276;2022-07-23T15:10:33;19.20;99.90
28336;DHT22;15592;53.656;7.276;2022-07-23T15:12:58;19.20;99.90
28336;DHT22;15592;53.656;7.276;2022-07-23T15:15:24;19.20;99.90
28336;DHT22;15592;53.656;7.276;2022-07-23T15:17:50;19.20;99.90
28336;DHT22;15592;53.656;7.276;2022-07-23T15:20:15;19.30;99.90
28336;DHT22;15592;53.656;7.276;2022-07-23T15:22:41;19.20;99.90
28336;DHT22;15592;53.656;7.276;2022-07-23T15:25:07;19.30;99.90
28336;DHT22;15592;53.656;7.276;2022-07-23T15:27:33;19.30;99.90
28336;DHT22;15592;53.656;7.276;2022-07-23T15:29:59;19.20;99.90
28336;DHT22;15592;53.656;7.276;2022-07-23T15:32:24;19.30;99.90
28336;DHT22;15592;53.656;7.276;2022-07-23T15:34:55;19.30;99.90
28336;DHT22;15592;53.656;7.276;2022-07-23T15:37:21;19.30;99.90
28336;DHT22;15592;53.656;7.276;2022-07-23T15:39:48;19.30;99.90
28336;DHT22;15592;53.656;7.276;2022-07-23T15:42:15;19.30;99.90
28336;DHT22;15592;53.656;7.276;2022-07-23T15:44:44;19.30;99.90
28336;DHT22;15592;53.656;7.276;2022-07-23T15:47:16;19.40;99.90
28336;DHT22;15592;53.656;7.276;2022-07-23T15:49:43;19.40;99.90
28336;DHT22;15592;53.656;7.276;2022-07-23T15:52:09;19.40;99.90
28336;DHT22;15592;53.656;7.276;2022-07-23T15:54:35;19.40;99.90
28336;DHT22;15592;53.656;7.276;2022-07-23T15:57:02;19.50;99.90
28336;DHT22;15592;53.656;7.276;2022-07-23T15:59:28;19.50;99.90
28336;DHT22;15592;53.656;7.276;2022-07-23T16:01:54;19.50;99.90
28336;DHT22;15592;53.656;7.276;2022-07-23T16:04:20;19.50;99.90
28336;DHT22;15592;53.656;7.276;2022-07-23T16:06:46;19.50;99.90
28336;DHT22;15592;53.656;7.276;2022-07-23T16:09:11;19.50;99.90
28336;DHT22;15592;53.656;7.276;2022-07-23T16:11:37;19.40;99.90
28336;DHT22;15592;53.656;7.276;2022-07-23T16:14:02;19.50;99.90
28336;DHT22;15592;53.656;7.276;2022-07-23T16:16:29;19.50;99.90
28336;DHT22;15592;53.656;7.276;2022-07-23T16:18:55;19.50;99.90
28336;DHT22;15592;53.656;7.276;2022-07-23T16:21:22;19.50;99.90
28336;DHT22;15592;53.656;7.276;2022-07-23T16:23:47;19.50;99.90